Time;durP1;ratioP1;P1;durP2;ratioP2;P2;SDS_P1;SDS_P2;PMS_P1;PMS_P2;Temp;Humidity;BMP_temperature;BMP_pressure;BME280_temperature;BME280_humidity;BME280_pressure;Samples;Min_cycle;Max_cycle;Signal;HPM_P1;HPM_P2
2022/01/05 00:00:10;;;;;;;;;18.00;13.00;;;;;8.77;100.00;98073.72;6287385;20;2795132;-40
2022/01/05 00:02:39;;;;;;;;;14.60;10.60;;;;;8.80;100.00;98080.66;6308773;20;2795073;-39
2022/01/05 00:05:10;;;;;;;;;11.33;11.00;;;;;8.86;100.00;98080.16;6283481;20;3519038;-40
2022/01/05 00:07:38;;;;;;;;;18.50;14.50;;;;;8.80;100.00;98075.31;6316760;20;2810675;-40
2022/01/05 00:10:07;;;;;;;;;15.00;12.00;;;;;8.93;100.00;98076.03;6284412;20;2799318;-41
2022/01/05 00:12:35;;;;;;;;;15.50;14.00;;;;;8.95;100.00;98067.84;6319019;20;2799189;-40
2022/01/05 00:15:05;;;;;;;;;13.67;12.00;;;;;8.89;100.00;98066.53;6280560;20;2794138;-40
2022/01/05 00:17:33;;;;;;;;;13.50;11.00;;;;;8.86;100.00;98061.44;6310132;20;2784756;-40
2022/01/05 00:20:05;;;;;;;;;15.50;14.00;;;;;8.83;100.00;98067.03;6282728;20;2811756;-40
2022/01/05 00:22:34;;;;;;;;;23.00;16.67;;;;;8.91;100.00;98067.25;6281585;20;3566924;-42
2022/01/05 00:25:05;;;;;;;;;17.67;15.00;;;;;8.87;100.00;98065.78;6282284;20;3565909;-40
2022/01/05 00:27:33;;;;;;;;;18.00;15.00;;;;;8.82;100.00;98068.03;6317386;20;2805575;-40
2022/01/05 00:30:03;;;;;;;;;13.00;13.00;;;;;8.85;100.00;98062.41;6283702;20;3514875;-40
2022/01/05 00:32:31;;;;;;;;;13.50;12.50;;;;;8.85;100.00;98062.41;6317090;20;2787794;-40
2022/01/05 00:34:59;;;;;;;;;16.00;14.33;;;;;8.93;100.00;98061.78;6282517;20;3540836;-40
2022/01/05 00:37:28;;;;;;;;;20.67;16.33;;;;;8.89;100.00;98063.84;6311353;20;3545038;-40
2022/01/05 00:39:56;;;;;;;;;15.33;13.33;;;;;8.88;100.00;98061.31;6281615;20;2798250;-40
2022/01/05 00:42:24;;;;;;;;;18.00;15.00;;;;;8.82;100.00;98062.66;6315398;20;2813788;-40
2022/01/05 00:44:52;;;;;;;;;12.50;10.50;;;;;8.72;100.00;98061.69;6287031;20;2795107;-41
2022/01/05 00:47:21;;;;;;;;;16.33;15.67;;;;;8.76;100.00;98052.44;6280766;20;3554853;-40
2022/01/05 00:49:49;;;;;;;;;13.00;11.00;;;;;9.02;100.00;98059.19;6313651;20;2798588;-40
2022/01/05 00:52:17;;;;;;;;;13.67;13.00;;;;;8.89;100.00;98061.19;6281947;20;2802429;-40
2022/01/05 00:54:46;;;;;;;;;22.33;18.67;;;;;8.87;100.00;98055.09;6313087;20;3568583;-40
2022/01/05 00:57:15;;;;;;;;;20.33;15.33;;;;;8.87;100.00;98057.75;6311698;20;3546130;-40
2022/01/05 00:59:43;;;;;;;;;18.50;12.50;;;;;8.97;100.00;98056.03;6285680;20;2817958;-42
2022/01/05 01:02:12;;;;;;;;;17.33;15.00;;;;;8.78;100.00;98061.19;6282874;20;3556519;-40
2022/01/05 01:04:40;;;;;;;;;17.00;14.00;;;;;8.90;99.83;98065.56;6311280;20;2489867;-39
2022/01/05 01:07:08;;;;;;;;;14.50;13.50;;;;;8.91;99.75;98072.63;6288275;20;2799215;-40
2022/01/05 01:09:38;;;;;;;;;12.60;12.60;;;;;8.87;99.84;98067.63;6307800;20;2791991;-40
2022/01/05 01:12:08;;;;;;;;;13.00;13.00;;;;;8.84;100.00;98071.41;6282227;20;2789849;-40
2022/01/05 01:14:35;;;;;;;;;14.50;11.00;;;;;8.88;100.00;98070.19;6312321;20;2783590;-40
2022/01/05 01:17:04;;;;;;;;;16.00;13.00;;;;;8.83;100.00;98068.88;6280316;20;2799366;-40
2022/01/05 01:19:32;;;;;;;;;16.50;10.00;;;;;8.85;100.00;98057.06;6278775;20;2798676;-40
2022/01/05 01:22:01;;;;;;;;;17.67;14.00;;;;;8.84;100.00;98065.19;6282602;20;2802535;-40
2022/01/05 01:24:29;;;;;;;;;8.00;8.00;;;;;8.92;99.86;98073.47;6316558;20;2739861;-40
2022/01/05 01:26:56;;;;;;;;;11.00;11.00;;;;;9.00;100.00;98071.88;6314744;20;2789823;-40
2022/01/05 01:29:24;;;;;;;;;14.00;14.00;;;;;8.93;99.71;98059.13;6285712;20;2803384;-41
2022/01/05 01:31:53;;;;;;;;;16.00;13.67;;;;;8.88;99.61;98062.16;6291758;20;3530450;-41
2022/01/05 01:34:21;;;;;;;;;15.00;13.50;;;;;8.82;99.81;98057.31;6328820;20;2788832;-41
2022/01/05 01:36:49;;;;;;;;;17.00;13.00;;;;;8.80;100.00;98048.56;6299437;20;2748209;-40
2022/01/05 01:39:17;;;;;;;;;10.50;10.50;;;;;8.81;100.00;98039.53;6291655;20;2786711;-41
2022/01/05 01:41:45;;;;;;;;;15.33;14.00;;;;;8.80;99.93;98035.16;6291862;20;2793055;-40
2022/01/05 01:44:16;;;;;;;;;14.00;14.00;;;;;8.82;99.94;98027.88;6323600;20;3540887;-40
2022/01/05 01:46:44;;;;;;;;;13.00;13.00;;;;;8.77;100.00;98032.75;6289764;20;2788816;-40
2022/01/05 01:49:12;;;;;;;;;12.00;10.00;;;;;8.79;99.69;98030.78;6297387;20;2785820;-42
2022/01/05 01:51:40;;;;;;;;;10.00;10.00;;;;;8.83;99.79;98031.41;6287117;20;2792004;-41
2022/01/05 01:54:09;;;;;;;;;13.67;12.33;;;;;8.76;99.99;98026.53;6291604;20;2809653;-41
2022/01/05 01:56:38;;;;;;;;;14.00;9.00;;;;;8.79;99.77;98020.06;6321814;20;2764845;-40
2022/01/05 01:59:08;;;;;;;;;15.33;13.33;;;;;8.70;100.00;98031.53;6288887;20;2789947;-40
2022/01/05 02:01:36;;;;;;;;;13.50;11.00;;;;;8.78;99.74;98024.56;6321287;20;2790002;-40
2022/01/05 02:04:04;;;;;;;;;13.50;12.00;;;;;8.95;100.00;98033.94;6295384;20;2789829;-42
2022/01/05 02:06:32;;;;;;;;;20.00;14.50;;;;;8.98;100.00;98035.50;6291448;20;3431594;-40
2022/01/05 02:09:01;;;;;;;;;15.33;10.00;;;;;8.98;100.00;98027.47;6321570;20;2787043;-41
2022/01/05 02:11:29;;;;;;;;;14.50;13.50;;;;;8.91;99.76;98021.75;6324098;20;2806493;-39
2022/01/05 02:13:58;;;;;;;;;13.33;13.00;;;;;9.01;98.83;98022.72;6291497;20;3510748;-40
2022/01/05 02:16:30;;;;;;;;;15.00;13.50;;;;;8.92;98.80;98020.78;6320978;20;2792046;-39
2022/01/05 02:19:01;;;;;;;;;12.33;12.33;;;;;8.95;98.13;98025.91;6292474;20;2792170;-39
2022/01/05 02:21:34;;;;;;;;;10.50;9.00;;;;;9.00;97.48;98023.69;6318921;20;2776300;-40
2022/01/05 02:24:06;;;;;;;;;20.00;16.00;;;;;8.97;97.92;98018.56;6290149;20;2496118;-40
2022/01/05 02:26:38;;;;;;;;;21.17;16.83;;;;;8.91;98.35;98028.94;6316043;20;3565833;-41
2022/01/05 02:29:06;;;;;;;;;13.00;10.00;;;;;8.97;97.75;98031.97;6290650;20;2789847;-40
2022/01/05 02:31:34;;;;;;;;;15.00;11.00;;;;;8.95;97.68;98025.03;6288469;20;2788834;-41
2022/01/05 02:34:05;;;;;;;;;5.50;2.75;;;;;8.98;97.80;98016.78;6307985;20;1803478;-39
2022/01/05 02:36:34;;;;;;;;;13.33;10.00;;;;;8.91;97.86;98013.72;6318594;20;2789889;-40
2022/01/05 02:39:02;;;;;;;;;10.50;8.50;;;;;8.96;97.47;98006.19;6323208;20;2757597;-40
2022/01/05 02:41:31;;;;;;;;;12.00;12.00;;;;;8.86;97.59;98005.22;6286060;20;2796203;-41
2022/01/05 02:44:00;;;;;;;;;11.80;11.80;;;;;8.95;97.36;98006.28;6340892;20;2778390;-40
2022/01/05 02:46:29;;;;;;;;;10.00;10.00;;;;;8.90;97.50;98005.81;6284965;20;2798193;-40
2022/01/05 02:48:58;;;;;;;;;10.00;10.00;;;;;8.87;97.57;98000.72;6315386;20;2784287;-41
2022/01/05 02:51:28;;;;;;;;;11.00;10.00;;;;;8.85;97.22;98008.88;6309693;20;2791991;-40
2022/01/05 02:53:58;;;;;;;;;10.80;9.80;;;;;8.80;97.44;98011.09;6310260;20;2766897;-40
2022/01/05 02:56:26;;;;;;;;;12.00;12.00;;;;;8.87;97.32;98009.59;6287704;20;2794054;-42
2022/01/05 02:58:55;;;;;;;;;11.40;9.20;;;;;8.82;97.22;98013.63;6310443;20;2772122;-41
2022/01/05 03:01:25;;;;;;;;;12.80;10.20;;;;;8.76;97.08;97997.09;6308452;20;2786837;-41
2022/01/05 03:03:53;;;;;;;;;10.50;10.00;;;;;8.86;97.24;97999.88;6287303;20;2796548;-41
2022/01/05 03:06:22;;;;;;;;;4.00;4.00;;;;;8.77;96.69;98011.34;6287052;20;2745103;-40
2022/01/05 03:08:51;;;;;;;;;14.00;10.00;;;;;8.90;96.57;97995.09;6314053;20;2798362;-40
2022/01/05 03:11:19;;;;;;;;;11.00;11.00;;;;;8.76;96.83;97998.91;6281484;20;2788789;-40
2022/01/05 03:13:47;;;;;;;;;13.50;13.50;;;;;8.78;96.86;98003.16;6284042;20;2788781;-41
2022/01/05 03:16:15;;;;;;;;;15.00;13.50;;;;;8.72;96.86;97998.31;6285775;20;2795081;-41
2022/01/05 03:18:44;;;;;;;;;10.80;10.80;;;;;8.68;97.13;97996.03;6308309;20;2789848;-40
2022/01/05 03:21:12;;;;;;;;;15.00;10.00;;;;;8.75;97.20;97990.03;6284697;20;2801320;-41
2022/01/05 03:23:45;;;;;;;;;10.00;10.00;;;;;8.73;97.44;97996.50;6311952;20;2790043;-41
2022/01/05 03:26:14;;;;;;;;;13.50;11.00;;;;;9.14;98.08;97990.44;6283400;20;2796116;-40
2022/01/05 03:28:41;;;;;;;;;12.50;9.00;;;;;8.75;96.91;97984.69;6284630;20;2774264;-42
2022/01/05 03:31:09;;;;;;;;;12.00;9.50;;;;;8.93;96.20;97982.34;6286001;20;2777490;-39
2022/01/05 03:33:37;;;;;;;;;8.50;8.50;;;;;8.90;96.06;97979.94;6289053;20;2754572;-40
2022/01/05 03:36:07;;;;;;;;;13.80;10.40;;;;;8.73;96.27;97993.81;6308908;20;2781612;-41
2022/01/05 03:38:38;;;;;;;;;10.00;10.00;;;;;8.67;96.87;97997.00;6328891;20;1797201;-40
2022/01/05 03:41:06;;;;;;;;;10.50;8.00;;;;;8.54;96.89;97999.81;6315701;20;2756529;-41
2022/01/05 03:43:34;;;;;;;;;8.00;8.00;;;;;8.70;96.83;97994.06;6285355;20;2746114;-40
2022/01/05 03:46:02;;;;;;;;;9.00;8.00;;;;;8.50;97.39;98003.69;6285001;20;2743069;-41
2022/01/05 03:48:30;;;;;;;;;9.50;9.50;;;;;8.46;97.69;97997.75;6287914;20;2771080;-40
2022/01/05 03:50:58;;;;;;;;;12.00;12.00;;;;;8.56;97.28;97997.88;6283700;20;2794098;-40
2022/01/05 03:53:25;;;;;;;;;9.00;9.00;;;;;8.50;97.35;97995.66;6284411;20;2731538;-42
2022/01/05 03:55:57;;;;;;;;;9.57;7.71;;;;;8.61;97.42;97994.81;6327640;20;1797158;-40
2022/01/05 03:58:25;;;;;;;;;12.00;10.00;;;;;8.46;97.43;97986.22;6312914;20;2798275;-40
2022/01/05 04:00:53;;;;;;;;;8.33;8.33;;;;;8.33;97.98;97980.97;6306348;20;1807296;-40
2022/01/05 04:03:21;;;;;;;;;10.50;10.50;;;;;8.39;97.87;97995.66;6315549;20;2780452;-41
2022/01/05 04:05:50;;;;;;;;;10.00;8.50;;;;;8.34;98.11;97988.00;6302580;20;1807666;-41
2022/01/05 04:08:18;;;;;;;;;8.00;7.50;;;;;8.35;98.06;97984.38;6318030;20;2741934;-41
2022/01/05 04:10:46;;;;;;;;;10.50;8.00;;;;;8.28;98.00;97989.34;6280909;20;2767190;-40
2022/01/05 04:13:16;;;;;;;;;11.00;9.40;;;;;8.36;98.04;97996.75;6307226;20;2785686;-40
2022/01/05 04:15:44;;;;;;;;;15.00;13.00;;;;;8.24;98.23;97997.72;6284582;20;2793047;-40
2022/01/05 04:18:12;;;;;;;;;13.00;11.50;;;;;8.34;98.46;97991.50;6281732;20;2791920;-41
2022/01/05 04:20:40;;;;;;;;;8.50;8.50;;;;;8.25;98.34;97994.09;6285885;20;2741978;-41
2022/01/05 04:23:08;;;;;;;;;14.00;11.00;;;;;8.29;98.21;97996.41;6314122;20;2775240;-41
2022/01/05 04:25:36;;;;;;;;;14.50;10.00;;;;;8.31;98.14;97994.44;6284237;20;2777370;-41
2022/01/05 04:28:05;;;;;;;;;10.50;8.00;;;;;8.28;98.03;97996.50;6284513;20;2758618;-41
2022/01/05 04:30:32;;;;;;;;;11.00;9.00;;;;;8.19;98.70;98000.78;6279858;20;2752342;-40
2022/01/05 04:33:00;;;;;;;;;9.50;8.50;;;;;8.22;98.62;98007.69;6285293;20;2759656;-40
2022/01/05 04:35:48;;;;;;;;;12.00;10.00;;;;;8.26;98.60;97999.28;6283077;20;2785667;-40
2022/01/05 04:38:16;;;;;;;;;12.33;11.00;;;;;8.25;98.88;97992.25;6282455;20;2789837;-41
2022/01/05 04:40:45;;;;;;;;;9.00;7.00;;;;;8.41;98.22;97994.59;6314343;20;2755520;-40
2022/01/05 04:43:13;;;;;;;;;14.00;9.50;;;;;8.34;99.19;97996.00;6283382;20;2775305;-40
2022/01/05 04:45:42;;;;;;;;;9.20;8.60;;;;;8.25;98.45;97988.75;6311221;20;2747119;-41
2022/01/05 04:48:13;;;;;;;;;8.80;8.00;;;;;8.32;98.55;97989.94;6356439;20;1800337;-40
2022/01/05 04:50:40;;;;;;;;;10.00;9.00;;;;;8.21;98.50;97990.78;6313652;20;2756538;-40
2022/01/05 04:53:11;;;;;;;;;10.00;9.00;;;;;8.34;98.11;97994.19;6285238;20;2752422;-41
2022/01/05 04:55:41;;;;;;;;;10.00;9.00;;;;;8.30;97.79;97986.56;6284588;20;2767938;-40
2022/01/05 04:58:08;;;;;;;;;21.50;17.00;;;;;8.29;98.59;97984.84;6275792;20;2494015;-40
2022/01/05 05:00:37;;;;;;;;;17.00;14.67;;;;;8.28;98.26;97992.00;6278565;20;3546162;-42
2022/01/05 05:03:06;;;;;;;;;17.00;14.33;;;;;8.28;98.04;97977.78;6312499;20;3540899;-40
2022/01/05 05:05:36;;;;;;;;;13.80;12.00;;;;;8.37;98.24;97987.75;6301826;20;2796183;-40
2022/01/05 05:08:05;;;;;;;;;10.50;8.50;;;;;8.31;98.29;97985.56;6281717;20;2769041;-42
2022/01/05 05:10:34;;;;;;;;;9.20;9.20;;;;;8.41;98.49;97983.06;6307528;20;2757806;-41
2022/01/05 05:13:12;;;;;;;;;12.00;9.00;;;;;8.45;97.81;97985.38;6313195;20;2772191;-41
2022/01/05 05:15:41;;;;;;;;;10.00;8.25;;;;;8.35;97.97;97984.38;6302720;20;1801461;-40
2022/01/05 05:18:09;;;;;;;;;12.50;11.00;;;;;8.34;98.21;97977.28;6310399;20;2791948;-40
2022/01/05 05:20:37;;;;;;;;;11.00;8.00;;;;;8.31;98.12;97978.38;6282179;20;2763800;-42
2022/01/05 05:23:05;;;;;;;;;12.00;8.00;;;;;8.40;98.30;97990.22;6282919;20;2769037;-41
2022/01/05 05:25:33;;;;;;;;;12.00;9.00;;;;;8.32;98.04;97992.59;6281614;20;2776306;-40
2022/01/05 05:28:03;;;;;;;;;12.20;10.20;;;;;8.27;98.73;97994.81;6306821;20;2798183;-40
2022/01/05 05:30:37;;;;;;;;;11.86;8.57;;;;;8.18;99.11;97987.50;6325371;20;1800386;-42
2022/01/05 05:33:07;;;;;;;;;12.00;9.60;;;;;8.29;98.39;97990.19;6336431;20;2776293;-41
2022/01/05 05:35:35;;;;;;;;;7.50;7.50;;;;;8.05;99.29;97996.50;6284585;20;2736739;-40
2022/01/05 05:38:03;;;;;;;;;9.50;9.50;;;;;8.01;99.42;97996.88;6310885;20;2773158;-40
2022/01/05 05:40:30;;;;;;;;;14.00;10.00;;;;;7.91;100.00;97997.56;6280553;20;2783639;-40
2022/01/05 05:42:58;;;;;;;;;9.00;7.50;;;;;7.92;100.00;97993.06;6285562;20;2749831;-41
2022/01/05 05:45:27;;;;;;;;;11.00;11.00;;;;;7.91;99.92;97996.72;6311096;20;2789912;-41
2022/01/05 05:47:56;;;;;;;;;10.67;10.67;;;;;7.98;99.41;98000.63;6281542;20;2783799;-42
2022/01/05 05:50:25;;;;;;;;;16.00;12.00;;;;;7.77;100.00;97999.63;6310890;20;2796122;-41
2022/01/05 05:52:53;;;;;;;;;22.00;17.00;;;;;7.81;100.00;98004.59;6282094;20;3562714;-41
2022/01/05 05:55:21;;;;;;;;;22.50;20.00;;;;;7.88;100.00;98007.66;6310371;20;2491905;-41
2022/01/05 05:57:50;;;;;;;;;19.50;16.00;;;;;7.75;100.00;98013.09;6282355;20;2829405;-40
2022/01/05 06:00:19;;;;;;;;;23.50;21.50;;;;;7.85;100.00;98008.75;6279394;20;2838860;-41
2022/01/05 06:02:49;;;;;;;;;61.33;50.00;;;;;7.83;100.00;98020.53;6279884;20;2852397;-41
2022/01/05 06:05:18;;;;;;;;;34.33;29.00;;;;;7.75;100.00;98025.63;6313095;20;3594013;-41
2022/01/05 06:07:46;;;;;;;;;14.00;10.50;;;;;7.69;100.00;98024.28;6277690;20;2779533;-40
2022/01/05 06:10:13;;;;;;;;;13.00;9.00;;;;;7.59;100.00;98024.09;6281721;20;2776454;-40
2022/01/05 06:12:43;;;;;;;;;12.00;10.00;;;;;7.56;100.00;98021.69;6308038;20;2796174;-41
2022/01/05 06:15:11;;;;;;;;;9.50;9.50;;;;;7.45;100.00;98024.28;6279855;20;2764894;-41
2022/01/05 06:17:39;;;;;;;;;18.50;17.50;;;;;7.44;100.00;98022.59;6284473;20;2832570;-41
2022/01/05 06:20:09;;;;;;;;;27.00;23.00;;;;;7.31;100.00;98016.47;6280379;20;2493993;-41
2022/01/05 06:22:41;;;;;;;;;39.67;28.00;;;;;7.32;100.00;98015.50;6285743;20;2863963;-42
2022/01/05 06:25:12;;;;;;;;;25.00;24.00;;;;;7.31;100.00;98013.81;6318193;20;2850388;-43
2022/01/05 06:27:40;;;;;;;;;24.50;21.00;;;;;7.35;100.00;98009.97;6284171;20;2500299;-41
2022/01/05 06:30:10;;;;;;;;;21.00;18.00;;;;;7.36;100.00;98004.47;6287217;20;2827782;-43
2022/01/05 06:32:45;;;;;;;;;26.50;21.50;;;;;7.32;100.00;98005.69;6286377;20;2844012;-40
2022/01/05 06:35:18;;;;;;;;;51.00;42.00;;;;;7.20;100.00;98018.13;6281790;20;2845153;-41
2022/01/05 06:37:47;;;;;;;;;59.00;49.67;;;;;7.32;100.00;98012.81;6315497;20;2862810;-41
2022/01/05 06:40:20;;;;;;;;;42.00;35.00;;;;;7.37;100.00;98016.88;6318491;20;3602315;-41
2022/01/05 06:42:48;;;;;;;;;29.00;26.00;;;;;7.35;100.00;98020.63;6284936;20;2498192;-40
2022/01/05 06:45:17;;;;;;;;;53.50;43.50;;;;;7.38;100.00;98020.41;6284334;20;2851427;-41
2022/01/05 06:47:46;;;;;;;;;27.50;25.50;;;;;7.52;100.00;98020.19;6283769;20;2844086;-41
2022/01/05 06:50:15;;;;;;;;;16.00;16.00;;;;;7.56;100.00;98011.00;6285621;20;3547157;-41
2022/01/05 06:52:44;;;;;;;;;15.33;13.67;;;;;7.58;100.00;98005.53;6316955;20;3535626;-40
2022/01/05 06:55:11;;;;;;;;;19.00;15.00;;;;;7.82;100.00;98016.13;6317069;20;2805457;-41
2022/01/05 06:57:41;;;;;;;;;14.00;13.00;;;;;7.86;100.00;98014.94;6284593;20;3534703;-41
2022/01/05 07:00:12;;;;;;;;;21.33;15.00;;;;;7.82;100.00;98003.66;6312671;20;3560774;-42
2022/01/05 07:02:41;;;;;;;;;13.50;13.00;;;;;7.91;100.00;98007.41;6285769;20;2800346;-42
2022/01/05 07:05:10;;;;;;;;;22.67;20.33;;;;;8.01;100.00;98008.41;6286551;20;3563810;-41
2022/01/05 07:07:38;;;;;;;;;21.50;20.50;;;;;7.96;100.00;98010.59;6281021;20;2496107;-40
2022/01/05 07:10:09;;;;;;;;;21.00;20.00;;;;;7.96;100.00;98015.09;6286458;20;2831605;-40
2022/01/05 07:12:40;;;;;;;;;20.33;15.00;;;;;8.09;99.86;98015.84;6285294;20;3538844;-40
2022/01/05 07:15:10;;;;;;;;;15.50;14.00;;;;;8.18;99.53;98003.56;6317352;20;2811762;-40
2022/01/05 07:17:38;;;;;;;;;12.00;12.00;;;;;8.02;100.00;98023.47;6282037;20;2798316;-41
2022/01/05 07:20:10;;;;;;;;;18.50;15.00;;;;;8.12;100.00;98016.44;6318492;20;2813854;-41
2022/01/05 07:22:42;;;;;;;;;17.67;12.67;;;;;8.26;99.59;98012.66;6283967;20;3542030;-41
2022/01/05 07:25:11;;;;;;;;;15.00;12.50;;;;;8.16;99.65;98021.53;6318616;20;2791921;-42
2022/01/05 07:27:39;;;;;;;;;11.00;9.00;;;;;8.20;99.61;98017.66;6283863;20;2760731;-43
2022/01/05 07:30:09;;;;;;;;;19.33;11.00;;;;;8.26;99.37;98014.50;6283173;20;3534647;-42
2022/01/05 07:32:39;;;;;;;;;12.00;11.00;;;;;8.20;99.56;98017.66;6315115;20;2780026;-43
2022/01/05 07:35:09;;;;;;;;;14.67;13.00;;;;;8.24;99.59;98008.41;6283873;20;2792078;-43
2022/01/05 07:37:37;;;;;;;;;17.00;15.67;;;;;8.21;99.98;98014.00;6314958;20;2835703;-44
2022/01/05 07:40:06;;;;;;;;;12.00;12.00;;;;;8.26;99.41;98022.50;6318643;20;2794061;-44
2022/01/05 07:42:35;;;;;;;;;9.00;9.00;;;;;8.33;99.28;98021.91;6286401;20;2756608;-44
2022/01/05 07:45:07;;;;;;;;;16.00;13.00;;;;;8.39;99.43;98028.63;6289794;20;2797110;-45
2022/01/05 07:47:36;;;;;;;;;13.00;10.00;;;;;8.43;98.93;98024.75;6284532;20;2789887;-42
2022/01/05 07:50:09;;;;;;;;;15.00;13.00;;;;;8.46;98.79;98032.53;6286888;20;2799200;-42
2022/01/05 07:52:38;;;;;;;;;15.00;12.00;;;;;8.40;98.84;98030.34;6285143;20;2798297;-43
2022/01/05 07:55:07;;;;;;;;;14.50;13.50;;;;;8.44;98.66;98025.59;6317521;20;2810696;-42
2022/01/05 07:57:36;;;;;;;;;15.00;13.00;;;;;8.45;99.02;98033.50;6284098;20;2797755;-41
2022/01/05 08:00:07;;;;;;;;;12.00;12.00;;;;;8.56;98.70;98036.16;6320334;20;2738922;-41
2022/01/05 08:02:35;;;;;;;;;13.50;10.00;;;;;8.59;98.24;98031.56;6281381;20;2790917;-41
2022/01/05 08:05:04;;;;;;;;;14.00;13.00;;;;;8.73;97.95;98039.31;6286869;20;2790871;-43
2022/01/05 08:07:32;;;;;;;;;16.00;15.00;;;;;8.76;97.68;98036.38;6283516;20;2802425;-44
2022/01/05 08:10:01;;;;;;;;;11.33;11.33;;;;;8.94;97.03;98034.03;6278706;20;2797261;-42
2022/01/05 08:12:29;;;;;;;;;16.67;14.67;;;;;8.89;97.33;98031.72;6315848;20;3556469;-44
2022/01/05 08:14:57;;;;;;;;;14.00;10.00;;;;;8.86;97.49;98026.63;6314431;20;2783701;-44
2022/01/05 08:17:25;;;;;;;;;13.00;13.00;;;;;8.85;97.75;98032.97;6286582;20;2795036;-45
2022/01/05 08:19:53;;;;;;;;;19.00;15.50;;;;;9.02;96.62;98036.94;6281369;20;2500270;-43
2022/01/05 08:22:22;;;;;;;;;19.67;17.00;;;;;9.23;97.17;98032.50;6283820;20;3552306;-44
2022/01/05 08:24:52;;;;;;;;;16.00;16.00;;;;;8.96;97.14;98038.28;6314377;20;2492064;-44
2022/01/05 08:27:22;;;;;;;;;22.00;18.00;;;;;9.05;97.14;98027.81;6284025;20;2823217;-45
2022/01/05 08:29:51;;;;;;;;;21.33;14.67;;;;;9.12;96.32;98027.19;6282318;20;3553381;-42
2022/01/05 08:32:19;;;;;;;;;16.50;14.50;;;;;9.12;96.61;98037.06;6315941;20;2815923;-49
2022/01/05 08:34:47;;;;;;;;;17.00;16.00;;;;;9.22;96.68;98038.84;6286946;20;2828526;-42
2022/01/05 08:37:15;;;;;;;;;18.00;16.00;;;;;9.19;96.75;98033.75;6314026;20;2822176;-43
2022/01/05 08:39:43;;;;;;;;;17.00;14.00;;;;;9.34;95.64;98045.00;6281060;20;2805465;-42
2022/01/05 08:42:11;;;;;;;;;17.50;16.00;;;;;9.45;95.56;98055.69;6285583;20;2823406;-44
2022/01/05 08:44:40;;;;;;;;;18.00;15.33;;;;;9.48;95.53;98043.00;6283058;20;3537798;-43
2022/01/05 08:47:08;;;;;;;;;18.00;17.00;;;;;9.54;95.31;98050.53;6315513;20;2812799;-44
2022/01/05 08:49:37;;;;;;;;;15.67;15.67;;;;;9.61;94.91;98049.03;6280995;20;3532528;-49
2022/01/05 08:52:05;;;;;;;;;16.00;12.00;;;;;9.45;95.19;98044.09;6315517;20;2801282;-43
2022/01/05 08:54:33;;;;;;;;;11.00;11.00;;;;;9.75;95.11;98062.13;6282410;20;2789811;-44
2022/01/05 08:57:04;;;;;;;;;16.00;14.33;;;;;9.67;94.55;98056.56;6281457;20;3532544;-44
2022/01/05 08:59:32;;;;;;;;;14.67;14.33;;;;;9.65;95.15;98056.69;6310690;20;3522146;-46
2022/01/05 09:02:01;;;;;;;;;12.00;12.00;;;;;9.72;94.63;98054.34;6313439;20;2789967;-45
2022/01/05 09:04:31;;;;;;;;;16.00;13.67;;;;;9.80;94.49;98051.03;6284648;20;3535658;-44
2022/01/05 09:07:03;;;;;;;;;14.20;11.00;;;;;9.93;94.39;98042.78;6341698;20;2779417;-43
2022/01/05 09:09:31;;;;;;;;;18.00;14.50;;;;;9.95;93.48;98040.81;6281193;20;2816944;-49
2022/01/05 09:12:00;;;;;;;;;16.00;15.67;;;;;9.97;93.90;98038.84;6284010;20;3533580;-48
2022/01/05 09:14:28;;;;;;;;;13.67;13.67;;;;;10.06;93.45;98032.72;6310035;20;3547165;-48
2022/01/05 09:16:59;;;;;;;;;16.33;14.33;;;;;10.06;93.83;98025.53;6280630;20;3548250;-48
2022/01/05 09:19:28;;;;;;;;;13.33;13.00;;;;;10.18;92.97;98036.16;6311685;20;3529520;-49
2022/01/05 09:21:56;;;;;;;;;14.00;12.00;;;;;10.17;93.46;98038.00;6316582;20;2786730;-48
2022/01/05 09:24:45;;;;;;;;;17.00;13.00;;;;;10.31;93.02;98037.66;6283043;20;3524184;-49
2022/01/05 09:27:14;;;;;;;;;13.00;12.33;;;;;10.43;92.26;98018.81;6313097;20;2787837;-48
2022/01/05 09:29:42;;;;;;;;;11.00;11.00;;;;;10.26;93.15;98031.81;6316298;20;2805485;-48
2022/01/05 09:32:10;;;;;;;;;16.00;13.00;;;;;10.31;93.37;98016.22;6285757;20;2813834;-48
2022/01/05 09:34:41;;;;;;;;;16.67;14.00;;;;;10.39;92.99;98036.16;6282946;20;3539885;-48
2022/01/05 09:37:23;;;;;;;;;15.00;13.00;;;;;10.39;93.22;98038.84;6314637;20;2796175;-48
2022/01/05 09:42:41;;;;;;;;;19.00;14.00;;;;;10.44;93.28;98044.66;6312745;20;3537773;-48
2022/01/05 09:45:17;;;;;;;;;18.00;17.00;;;;;10.44;92.91;98039.28;6279410;20;3558556;-49
2022/01/05 09:47:58;;;;;;;;;18.67;15.00;;;;;10.55;93.31;98048.09;6282185;20;3545053;-42
2022/01/05 09:50:26;;;;;;;;;11.00;10.00;;;;;10.77;92.12;98043.53;6315605;20;2788822;-41
2022/01/05 09:52:56;;;;;;;;;16.33;15.67;;;;;10.66;92.46;98052.50;6286144;20;3543979;-41
2022/01/05 09:55:25;;;;;;;;;19.33;17.33;;;;;10.69;93.46;98038.84;6317451;20;3555454;-41
2022/01/05 09:57:53;;;;;;;;;13.50;10.00;;;;;10.71;92.58;98050.25;6286858;20;2775236;-43
2022/01/05 10:00:23;;;;;;;;;14.33;13.00;;;;;10.71;93.17;98054.78;6285533;20;3537739;-41
2022/01/05 10:02:52;;;;;;;;;12.00;12.00;;;;;10.71;93.26;98042.22;6315026;20;3521046;-42
2022/01/05 10:05:20;;;;;;;;;13.00;10.00;;;;;10.90;92.21;98045.94;6320060;20;2793018;-41
2022/01/05 10:07:48;;;;;;;;;8.00;4.50;;;;;10.95;91.99;98046.38;6288666;20;2755526;-41
2022/01/05 10:10:16;;;;;;;;;13.00;11.00;;;;;10.96;92.02;98040.03;6284987;20;2789864;-40
2022/01/05 10:12:50;;;;;;;;;12.00;11.00;;;;;11.06;92.07;98038.25;6286634;20;2792022;-42
2022/01/05 10:15:20;;;;;;;;;11.40;11.40;;;;;11.37;91.32;98030.94;6341853;20;2799236;-40
2022/01/05 10:17:47;;;;;;;;;11.00;9.50;;;;;11.34;90.82;98035.72;6281788;20;2778593;-41
2022/01/05 10:20:22;;;;;;;;;11.00;6.80;;;;;11.48;90.61;98038.00;6310293;20;2764006;-42
2022/01/05 10:22:50;;;;;;;;;11.50;10.00;;;;;11.45;90.52;98030.19;6285774;20;2786711;-40
2022/01/05 10:25:23;;;;;;;;;13.50;10.50;;;;;11.40;89.90;98038.72;6285883;20;2789899;-41
2022/01/05 10:28:00;;;;;;;;;12.00;11.50;;;;;11.48;89.59;98038.00;6291817;20;2797125;-42
2022/01/05 10:30:40;;;;;;;;;12.33;12.00;;;;;11.34;90.85;98035.72;6284403;20;3543971;-41
2022/01/05 10:33:09;;;;;;;;;16.33;15.33;;;;;11.26;91.30;98043.63;6317998;20;3540123;-42
2022/01/05 10:35:38;;;;;;;;;10.67;10.67;;;;;11.13;91.83;98039.34;6316474;20;2792766;-41
2022/01/05 10:38:09;;;;;;;;;20.00;17.00;;;;;11.18;91.62;98037.09;6312943;20;2489926;-41
2022/01/05 10:40:40;;;;;;;;;19.00;14.50;;;;;11.26;91.46;98039.09;6284469;20;2491970;-41
2022/01/05 10:43:13;;;;;;;;;25.00;21.00;;;;;11.24;91.73;98037.53;6285233;20;2844176;-41
2022/01/05 10:45:51;;;;;;;;;18.00;16.67;;;;;11.25;91.59;98029.34;6284892;20;3558584;-41
2022/01/05 10:48:25;;;;;;;;;16.33;14.67;;;;;11.11;92.43;98035.13;6283996;20;3543978;-40
2022/01/05 10:51:06;;;;;;;;;14.00;11.00;;;;;11.10;92.65;98047.69;6284110;20;3515868;-41
2022/01/05 10:53:35;;;;;;;;;18.67;15.67;;;;;10.90;93.10;98045.94;6314941;20;3549172;-41
2022/01/05 10:56:03;;;;;;;;;19.00;15.00;;;;;10.93;92.97;98043.00;6288782;20;2810688;-41
2022/01/05 10:58:45;;;;;;;;;19.00;15.00;;;;;10.86;93.40;98047.22;6285927;20;2496508;-40
2022/01/05 11:01:30;;;;;;;;;16.67;15.00;;;;;10.84;93.47;98059.94;6281789;20;3537846;-41
2022/01/05 11:03:59;;;;;;;;;17.00;15.00;;;;;10.72;94.53;98065.41;6281151;20;2500325;-41
2022/01/05 11:06:27;;;;;;;;;22.00;15.67;;;;;10.62;94.46;98059.16;6282689;20;3556511;-40
2022/01/05 11:09:04;;;;;;;;;18.00;16.50;;;;;10.73;93.44;98059.03;6284295;20;2819115;-41
2022/01/05 11:11:42;;;;;;;;;21.33;19.00;;;;;10.76;93.69;98053.41;6283349;20;3563771;-41
2022/01/05 11:14:14;;;;;;;;;22.00;20.00;;;;;10.59;94.10;98053.22;6283199;20;2826382;-41
2022/01/05 11:16:48;;;;;;;;;30.00;21.00;;;;;10.70;93.75;98064.69;6284633;20;2848189;-41
2022/01/05 11:19:30;;;;;;;;;31.33;27.00;;;;;10.75;94.36;98072.34;6283551;20;2851610;-41